createdAt,value
2018-09-08T00:04:26.517Z,16.80
2018-09-08T00:09:20.829Z,16.70
2018-09-08T00:14:15.170Z,16.60
2018-09-08T00:19:16.010Z,16.40
2018-09-08T00:24:15.369Z,16.30
2018-09-08T00:29:20.238Z,16.20
2018-09-08T00:34:14.663Z,16.10
2018-09-08T00:39:09.751Z,16.00
2018-09-08T00:44:04.044Z,15.90
2018-09-08T00:48:58.025Z,15.80
2018-09-08T00:53:51.849Z,15.80
2018-09-08T00:58:51.076Z,15.70
2018-09-08T01:03:45.519Z,15.80
2018-09-08T01:08:40.513Z,15.70
2018-09-08T01:13:34.309Z,15.70
2018-09-08T01:18:29.025Z,15.70
2018-09-08T01:23:22.832Z,15.70
2018-09-08T01:28:16.893Z,15.70
2018-09-08T01:33:12.784Z,15.70
2018-09-08T01:38:07.037Z,15.70
2018-09-08T01:43:01.047Z,15.60
2018-09-08T01:47:55.051Z,15.50
2018-09-08T01:52:49.115Z,15.50
2018-09-08T01:57:42.939Z,15.60
2018-09-08T02:02:36.672Z,15.70
2018-09-08T02:07:31.346Z,15.70
2018-09-08T02:12:25.343Z,15.60
2018-09-08T02:17:20.425Z,15.40
2018-09-08T02:22:14.367Z,15.40
2018-09-08T02:27:09.313Z,15.40
2018-09-08T02:32:04.237Z,15.40
2018-09-08T02:36:58.006Z,15.40
2018-09-08T02:41:52.143Z,15.20
2018-09-08T02:46:46.276Z,15.20
2018-09-08T02:51:38.766Z,15.00
2018-09-08T02:56:31.924Z,15.00
2018-09-08T03:01:24.553Z,14.90
2018-09-08T03:06:17.572Z,14.80
2018-09-08T03:11:10.292Z,14.70
2018-09-08T03:16:03.060Z,14.70
2018-09-08T03:20:55.664Z,14.60
2018-09-08T03:25:48.714Z,14.60
2018-09-08T03:30:41.470Z,14.50
2018-09-08T03:35:34.993Z,14.40
2018-09-08T03:40:27.663Z,14.40
2018-09-08T03:45:20.592Z,14.30
2018-09-08T03:50:12.987Z,14.30
2018-09-08T03:55:07.421Z,14.20
2018-09-08T04:00:03.029Z,14.20
2018-09-08T04:05:04.852Z,14.10
2018-09-08T04:09:58.786Z,14.00
2018-09-08T04:15:08.739Z,14.00
2018-09-08T04:20:09.705Z,13.90
2018-09-08T04:25:05.230Z,13.90
2018-09-08T04:30:07.691Z,13.80
2018-09-08T04:35:01.848Z,13.80
2018-09-08T04:39:56.260Z,13.80
2018-09-08T04:44:50.154Z,13.80
2018-09-08T04:49:43.884Z,13.80
2018-09-08T04:54:45.061Z,13.90
2018-09-08T04:59:46.591Z,13.90
2018-09-08T05:04:41.002Z,14.20
2018-09-08T05:09:35.069Z,14.50
2018-09-08T05:14:29.697Z,14.70
2018-09-08T05:19:23.499Z,14.90
2018-09-08T05:24:18.309Z,15.20
2018-09-08T05:29:12.341Z,15.50
2018-09-08T05:34:06.696Z,15.80
2018-09-08T05:39:00.748Z,16.10
2018-09-08T05:43:54.782Z,16.50
2018-09-08T05:48:48.683Z,16.80
2018-09-08T05:53:42.831Z,17.10
2018-09-08T05:58:36.712Z,17.40
2018-09-08T06:03:30.563Z,17.50
2018-09-08T06:08:26.309Z,18.30
2018-09-08T06:13:20.584Z,19.30
2018-09-08T06:18:15.120Z,20.30
2018-09-08T06:23:10.299Z,19.80
2018-09-08T06:28:04.969Z,19.00
2018-09-08T06:32:59.124Z,20.30
2018-09-08T06:37:54.704Z,21.70
2018-09-08T06:42:49.961Z,21.20
2018-09-08T06:47:44.668Z,20.30
2018-09-08T06:52:38.894Z,21.20
2018-09-08T06:57:32.881Z,22.00
2018-09-08T07:02:28.504Z,21.30
2018-09-08T07:07:22.401Z,20.70
2018-09-08T07:12:16.248Z,20.60
2018-09-08T07:17:10.450Z,20.60
2018-09-08T07:22:14.575Z,21.20
2018-09-08T07:27:15.852Z,23.10
2018-09-08T07:32:10.781Z,23.10
2018-09-08T07:37:07.432Z,22.40
2018-09-08T07:42:04.921Z,23.10
2018-09-08T07:46:59.579Z,25.00
2018-09-08T07:52:01.111Z,25.70
2018-09-08T07:56:55.240Z,26.60
2018-09-08T08:01:49.437Z,27.60
2018-09-08T08:06:44.682Z,28.50
2018-09-08T08:11:40.433Z,29.50
2018-09-08T08:16:36.912Z,29.70
2018-09-08T08:21:31.975Z,30.60
2018-09-08T08:26:28.072Z,29.20
2018-09-08T08:31:22.628Z,30.20
2018-09-08T08:36:20.987Z,31.10
2018-09-08T08:41:17.208Z,31.30
2018-09-08T08:46:13.517Z,33.50
2018-09-08T08:51:19.508Z,31.00
2018-09-08T08:56:13.992Z,28.90
2018-09-08T09:01:09.161Z,28.80
2018-09-08T09:06:05.657Z,28.20
2018-09-08T09:11:00.193Z,26.60
2018-09-08T09:15:54.269Z,29.90
2018-09-08T09:21:01.730Z,33.90
2018-09-08T09:25:55.560Z,35.50
2018-09-08T09:30:50.926Z,36.70
2018-09-08T09:35:44.687Z,35.40
2018-09-08T09:40:39.472Z,35.00
2018-09-08T09:45:34.229Z,36.10
2018-09-08T09:50:29.140Z,35.40
2018-09-08T09:55:23.105Z,33.60
2018-09-08T10:00:23.440Z,32.20
2018-09-08T10:05:25.415Z,30.10
2018-09-08T10:10:22.674Z,29.10
2018-09-08T10:15:17.354Z,33.60
2018-09-08T10:20:13.227Z,37.30
2018-09-08T10:25:09.269Z,37.80
2018-09-08T10:30:04.007Z,38.70
2018-09-08T10:34:57.736Z,39.60
2018-09-08T10:39:51.840Z,40.00
2018-09-08T10:44:46.418Z,39.10
2018-09-08T10:49:40.836Z,39.70
2018-09-08T10:54:36.671Z,39.60
2018-09-08T10:59:30.648Z,39.80
2018-09-08T11:04:33.568Z,39.00
2018-09-08T11:09:28.016Z,39.40
2018-09-08T11:14:22.014Z,37.60
2018-09-08T11:19:16.787Z,33.20
2018-09-08T11:24:11.816Z,32.60
2018-09-08T11:29:13.453Z,30.60
2018-09-08T11:34:08.651Z,29.40
2018-09-08T11:39:03.564Z,28.40
2018-09-08T11:43:58.366Z,27.70
2018-09-08T11:48:53.193Z,26.70
2018-09-08T11:53:47.835Z,25.50
2018-09-08T11:58:43.913Z,24.80
2018-09-08T12:03:38.148Z,24.40
2018-09-08T12:08:32.476Z,23.60
2018-09-08T12:13:27.329Z,23.40
2018-09-08T12:18:21.327Z,23.60
2018-09-08T12:23:15.739Z,23.90
2018-09-08T12:28:10.868Z,24.10
2018-09-08T12:33:05.995Z,23.90
2018-09-08T12:37:59.986Z,23.90
2018-09-08T12:42:54.787Z,23.90
2018-09-08T12:47:49.313Z,23.90
2018-09-08T12:53:07.298Z,23.90
2018-09-08T12:58:25.458Z,23.70
2018-09-08T13:03:42.195Z,23.40
2018-09-08T13:08:37.755Z,23.50
2018-09-08T13:13:33.137Z,23.60
2018-09-08T13:18:27.840Z,23.30
2018-09-08T13:23:23.612Z,23.30
2018-09-08T13:28:24.940Z,23.40
2018-09-08T13:33:27.393Z,23.40
2018-09-08T13:38:29.420Z,23.40
2018-09-08T13:43:23.656Z,23.60
2018-09-08T13:48:19.185Z,23.60
2018-09-08T13:53:16.296Z,23.50
2018-09-08T13:58:10.532Z,23.40
2018-09-08T14:03:11.183Z,23.40
2018-09-08T14:08:11.842Z,23.00
2018-09-08T14:13:09.407Z,22.80
2018-09-08T14:18:04.646Z,22.60
2018-09-08T14:22:58.888Z,22.50
2018-09-08T14:28:00.056Z,22.70
2018-09-08T14:33:01.808Z,23.00
2018-09-08T14:38:03.359Z,23.00
2018-09-08T14:42:58.126Z,23.10
2018-09-08T14:47:52.364Z,23.40
2018-09-08T14:52:46.657Z,23.60
2018-09-08T14:57:40.376Z,23.70
2018-09-08T15:02:41.877Z,23.80
2018-09-08T15:07:36.012Z,24.10
2018-09-08T15:12:29.903Z,24.30
2018-09-08T15:17:25.633Z,24.10
2018-09-08T15:22:19.521Z,23.80
2018-09-08T15:27:13.537Z,23.30
2018-09-08T15:32:08.144Z,23.10
2018-09-08T15:37:03.932Z,23.00
2018-09-08T15:41:57.810Z,22.90
2018-09-08T15:46:52.770Z,22.70
2018-09-08T15:51:47.373Z,22.50
2018-09-08T15:56:43.129Z,22.50
2018-09-08T16:01:38.770Z,22.40
2018-09-08T16:06:33.195Z,22.20
2018-09-08T16:11:27.563Z,22.00
2018-09-08T16:16:21.862Z,21.90
2018-09-08T16:21:31.436Z,21.70
2018-09-08T16:26:25.834Z,21.50
2018-09-08T16:31:27.925Z,21.40
2018-09-08T16:36:30.315Z,21.20
2018-09-08T16:41:31.817Z,21.20
2018-09-08T16:46:27.117Z,21.00
2018-09-08T16:51:21.142Z,20.90
2018-09-08T16:56:15.817Z,20.70
2018-09-08T17:01:10.165Z,20.60
2018-09-08T17:06:05.517Z,20.40
2018-09-08T17:10:59.761Z,20.20
2018-09-08T17:15:54.098Z,20.00
2018-09-08T17:20:48.676Z,19.90
2018-09-08T17:25:50.130Z,19.80
2018-09-08T17:30:44.983Z,19.60
2018-09-08T17:35:39.184Z,19.60
2018-09-08T17:40:34.333Z,19.50
2018-09-08T17:45:28.525Z,19.30
2018-09-08T17:50:23.389Z,19.20
2018-09-08T17:55:18.518Z,19.00
2018-09-08T18:00:13.448Z,18.90
2018-09-08T18:05:09.406Z,18.80
2018-09-08T18:10:04.156Z,18.60
2018-09-08T18:14:59.662Z,18.50
2018-09-08T18:19:53.968Z,18.40
2018-09-08T18:24:48.353Z,18.20
2018-09-08T18:29:42.629Z,18.10
2018-09-08T18:34:37.097Z,18.10
2018-09-08T18:39:31.812Z,18.00
2018-09-08T18:44:26.385Z,17.90
2018-09-08T18:49:27.867Z,17.90
2018-09-08T18:54:23.043Z,17.90
2018-09-08T18:59:17.408Z,17.80
2018-09-08T19:04:12.399Z,17.80
2018-09-08T19:09:07.828Z,17.70
2018-09-08T19:14:11.419Z,17.60
2018-09-08T19:19:13.443Z,17.50
2018-09-08T19:24:21.036Z,17.30
2018-09-08T19:29:20.414Z,17.20
2018-09-08T19:34:14.245Z,17.00
2018-09-08T19:39:10.734Z,16.90
2018-09-08T19:44:06.611Z,16.80
2018-09-08T19:49:01.195Z,16.70
2018-09-08T19:53:56.372Z,16.60
2018-09-08T19:58:58.726Z,16.50
2018-09-08T20:03:53.462Z,16.40
2018-09-08T20:08:48.510Z,16.50
2018-09-08T20:13:42.453Z,16.40
2018-09-08T20:18:36.544Z,16.30
2018-09-08T20:23:31.479Z,16.30
2018-09-08T20:28:25.874Z,16.20
2018-09-08T20:33:20.923Z,16.10
2018-09-08T20:38:16.889Z,16.00
2018-09-08T20:43:12.035Z,16.00
2018-09-08T20:48:07.160Z,15.90
2018-09-08T20:53:02.179Z,15.80
2018-09-08T20:57:56.567Z,15.70
2018-09-08T21:02:50.409Z,15.70
2018-09-08T21:07:44.955Z,15.60
2018-09-08T21:12:39.232Z,15.50
2018-09-08T21:17:33.724Z,15.50
2018-09-08T21:22:27.839Z,15.40
2018-09-08T21:27:22.509Z,15.40
2018-09-08T21:32:16.772Z,15.30
2018-09-08T21:37:11.220Z,15.20
2018-09-08T21:42:06.153Z,15.10
2018-09-08T21:47:05.911Z,15.10
2018-09-08T21:51:59.303Z,15.00
2018-09-08T21:56:53.379Z,15.00
2018-09-08T22:01:48.252Z,15.00
2018-09-08T22:06:42.373Z,14.90
2018-09-08T22:11:36.314Z,15.00
2018-09-08T22:16:30.787Z,15.00
2018-09-08T22:21:24.915Z,15.00
2018-09-08T22:26:19.961Z,14.80
2018-09-08T22:31:13.824Z,14.70
2018-09-08T22:36:08.867Z,14.60
2018-09-08T22:41:03.204Z,14.50
2018-09-08T22:45:57.777Z,14.40
2018-09-08T22:50:52.013Z,14.30
2018-09-08T22:55:46.406Z,14.20
2018-09-08T23:00:40.615Z,14.20
2018-09-08T23:05:35.745Z,14.10
2018-09-08T23:10:30.491Z,14.10
2018-09-08T23:15:24.840Z,14.00
2018-09-08T23:20:18.892Z,14.00
2018-09-08T23:25:13.453Z,14.00
2018-09-08T23:30:07.742Z,13.90
2018-09-08T23:35:01.983Z,13.90
2018-09-08T23:39:56.295Z,13.80
2018-09-08T23:44:51.167Z,13.70
2018-09-08T23:49:45.100Z,13.50
2018-09-08T23:54:40.147Z,13.50
2018-09-08T23:59:34.007Z,13.40
